Time;durP1;ratioP1;P1;durP2;ratioP2;P2;SDS_P1;SDS_P2;PMS_P1;PMS_P2;Temp;Humidity;BMP_temperature;BMP_pressure;BME280_temperature;BME280_humidity;BME280_pressure;Samples;Min_cycle;Max_cycle;Signal;HPM_P1;HPM_P2
2023/01/23 00:02:05;;;;;;;7.70;6.90;;;;;;;3.52;77.24;101628.91;10308341;28;20054;-69
2023/01/23 00:07:06;;;;;;;7.95;7.13;;;;;;;3.40;76.43;101608.19;10309068;28;20065;-71
2023/01/23 00:12:08;;;;;;;7.72;6.40;;;;;;;3.48;76.21;101617.59;10307324;28;22215;-70
2023/01/23 00:17:09;;;;;;;8.20;7.40;;;;;;;3.45;76.10;101619.44;10310997;28;20050;-69
2023/01/23 00:22:13;;;;;;;7.68;6.85;;;;;;;3.43;75.94;101603.69;10313093;28;20042;-70
2023/01/23 00:27:14;;;;;;;8.02;7.20;;;;;;;3.49;75.76;101614.03;10306145;28;20151;-69
2023/01/23 00:32:16;;;;;;;7.45;6.68;;;;;;;3.42;75.78;101604.59;10311719;28;20116;-69
2023/01/23 00:37:17;;;;;;;7.30;6.45;;;;;;;3.49;75.62;101631.63;10330519;28;20053;-68
2023/01/23 00:42:18;;;;;;;7.95;6.70;;;;;;;3.48;75.38;101632.50;10342190;28;20054;-68
2023/01/23 00:47:20;;;;;;;7.75;6.90;;;;;;;3.50;75.40;101628.94;10320206;28;20052;-71
2023/01/23 00:52:21;;;;;;;8.55;7.32;;;;;;;3.43;75.06;101640.53;10315248;28;20049;-71
2023/01/23 00:57:23;;;;;;;8.27;6.85;;;;;;;3.37;75.07;101624.94;10317898;28;20042;-69
2023/01/23 01:02:24;;;;;;;9.52;7.20;;;;;;;3.23;75.08;101616.56;10317238;28;20374;-69
2023/01/23 01:07:25;;;;;;;7.32;6.57;;;;;;;3.17;75.69;101618.47;10319201;28;20132;-69
2023/01/23 01:12:27;;;;;;;8.05;6.68;;;;;;;3.28;75.45;101647.09;10317377;28;20121;-68
2023/01/23 01:17:28;;;;;;;8.02;6.78;;;;;;;3.18;74.97;101630.72;10330777;28;21483;-67
2023/01/23 01:22:30;;;;;;;8.45;7.05;;;;;;;2.97;76.09;101616.38;10316269;28;20058;-68
2023/01/23 01:27:31;;;;;;;9.55;7.50;;;;;;;3.05;75.83;101647.75;10316040;28;20042;-69
2023/01/23 01:32:36;;;;;;;8.75;7.28;;;;;;;2.98;76.25;101654.91;10319038;28;20052;-69
2023/01/23 01:37:39;;;;;;;9.20;8.07;;;;;;;2.94;76.02;101657.69;10316818;28;20064;-69
2023/01/23 01:42:47;;;;;;;9.73;7.55;;;;;;;2.89;76.30;101659.56;10315405;28;20536;-72
2023/01/23 01:47:48;;;;;;;9.65;7.63;;;;;;;2.85;76.40;101669.28;10332515;28;20120;-68
2023/01/23 01:52:50;;;;;;;9.00;7.20;;;;;;;2.91;76.24;101668.28;10340878;28;20134;-67
2023/01/23 01:57:53;;;;;;;8.68;7.03;;;;;;;2.91;76.24;101676.16;10319776;28;20127;-69
2023/01/23 02:02:57;;;;;;;8.57;6.82;;;;;;;2.80;76.68;101676.44;10313917;28;20050;-67
2023/01/23 02:08:05;;;;;;;10.43;7.80;;;;;;;2.67;77.49;101665.34;10331512;28;20050;-68
2023/01/23 02:13:29;;;;;;;9.57;8.02;;;;;;;2.68;77.56;101669.72;10313539;28;20124;-70
2023/01/23 02:18:33;;;;;;;9.65;8.02;;;;;;;2.58;78.24;101676.09;10323442;28;20125;-67
2023/01/23 02:24:02;;;;;;;8.63;7.72;;;;;;;2.62;78.22;101673.38;10314540;28;20192;-69
2023/01/23 02:29:04;;;;;;;10.15;8.70;;;;;;;2.72;78.03;101668.75;10310551;28;20579;-70
2023/01/23 02:34:10;;;;;;;9.65;7.82;;;;;;;2.45;78.36;101642.25;10310102;28;20054;-67
2023/01/23 02:39:15;;;;;;;10.32;8.85;;;;;;;2.48;78.90;101663.19;10327612;28;20050;-70
2023/01/23 02:44:24;;;;;;;11.40;8.83;;;;;;;2.54;79.34;101687.59;10309258;28;20657;-69
2023/01/23 02:49:26;;;;;;;10.40;8.27;;;;;;;2.55;79.21;101678.81;10316845;28;20104;-68
2023/01/23 02:54:28;;;;;;;9.77;8.77;;;;;;;2.64;78.97;101678.59;10315211;28;20401;-70
2023/01/23 03:04:49;;;;;;;9.32;8.32;;;;;;;2.85;78.39;101690.34;10315720;28;20191;-70
2023/01/23 03:09:51;;;;;;;9.77;7.90;;;;;;;2.71;78.52;101668.78;10314534;28;20070;-68
2023/01/23 03:14:53;;;;;;;10.43;8.75;;;;;;;2.82;78.74;101699.19;10314724;28;20432;-69
2023/01/23 03:19:56;;;;;;;9.45;8.02;;;;;;;2.78;78.45;101689.63;10329382;28;20081;-70
2023/01/23 03:24:57;;;;;;;10.20;8.85;;;;;;;2.84;79.00;101699.16;10322615;28;20045;-69
2023/01/23 03:30:20;;;;;;;10.32;8.07;;;;;;;2.96;78.53;101697.97;10334196;28;20042;-71
2023/01/23 03:35:22;;;;;;;10.80;8.57;;;;;;;2.79;78.94;101706.28;10314417;28;20677;-73
2023/01/23 03:45:44;;;;;;;9.57;7.35;;;;;;;2.86;78.93;101701.75;10316218;28;20057;-69
2023/01/23 03:50:45;;;;;;;9.27;7.78;;;;;;;2.68;78.47;101671.50;10328465;28;20090;-68
2023/01/23 03:55:47;;;;;;;8.98;7.38;;;;;;;2.89;78.49;101697.25;10315559;28;20152;-68
2023/01/23 04:00:48;;;;;;;8.32;7.40;;;;;;;3.07;77.70;101714.34;10318463;28;20074;-68
2023/01/23 04:05:54;;;;;;;9.80;8.57;;;;;;;3.12;77.54;101715.09;10318897;28;20057;-69
2023/01/23 04:11:04;;;;;;;8.95;7.80;;;;;;;3.11;77.58;101712.50;10318742;28;20520;-68
2023/01/23 04:16:06;;;;;;;10.07;8.35;;;;;;;3.14;77.29;101710.66;10341255;28;20061;-71
2023/01/23 04:21:07;;;;;;;9.20;7.30;;;;;;;3.10;77.42;101726.56;10321809;28;20046;-67
2023/01/23 04:26:09;;;;;;;9.57;7.68;;;;;;;3.06;77.22;101699.44;10318799;28;20053;-70
2023/01/23 04:31:10;;;;;;;9.40;7.68;;;;;;;3.20;77.37;101707.00;10326597;28;20492;-67
2023/01/23 04:36:12;;;;;;;10.18;7.80;;;;;;;3.23;77.02;101712.19;10329754;28;20102;-68
2023/01/23 04:41:19;;;;;;;8.25;7.18;;;;;;;3.22;76.93;101709.59;10337480;28;20042;-69
2023/01/23 04:46:20;;;;;;;8.73;7.80;;;;;;;3.17;76.69;101701.81;10336373;28;20046;-69
2023/01/23 04:51:22;;;;;;;8.02;6.95;;;;;;;3.09;77.08;101699.38;10318137;28;20050;-69
2023/01/23 04:56:24;;;;;;;9.05;7.75;;;;;;;3.11;76.99;101713.34;10317415;28;20550;-69
2023/01/23 05:01:25;;;;;;;8.55;7.50;;;;;;;3.13;76.54;101700.16;10323143;28;21489;-70
2023/01/23 05:06:27;;;;;;;8.45;7.28;;;;;;;3.01;76.73;101682.91;10319906;28;20046;-68
2023/01/23 05:11:29;;;;;;;7.22;6.38;;;;;;;2.99;77.11;101692.63;10317883;28;20050;-70
2023/01/23 05:16:30;;;;;;;8.98;7.72;;;;;;;3.13;76.50;101708.91;10316230;28;20494;-69
2023/01/23 05:21:31;;;;;;;8.93;6.90;;;;;;;3.16;76.36;101721.97;10338724;28;20124;-70
2023/01/23 05:26:33;;;;;;;8.38;7.05;;;;;;;3.23;76.63;101734.97;10317931;28;20058;-68
2023/01/23 05:31:35;;;;;;;6.85;6.10;;;;;;;3.17;76.04;101723.72;10319853;28;20058;-70
2023/01/23 05:36:37;;;;;;;7.00;6.28;;;;;;;3.19;75.93;101721.91;10318256;28;20058;-69
2023/01/23 05:41:38;;;;;;;7.10;6.38;;;;;;;3.15;76.34;101745.69;10320354;28;20058;-69
2023/01/23 05:46:39;;;;;;;7.13;6.38;;;;;;;3.10;76.20;101737.94;10317006;28;20054;-68
2023/01/23 05:51:41;;;;;;;6.63;5.93;;;;;;;3.22;76.13;101764.84;10321667;28;20124;-71
2023/01/23 05:56:42;;;;;;;7.55;5.90;;;;;;;3.34;76.07;101782.94;10303844;28;20140;-71
2023/01/23 06:01:43;;;;;;;6.57;5.47;;;;;;;3.28;75.50;101744.47;10312545;28;20061;-68
2023/01/23 06:06:45;;;;;;;6.38;5.75;;;;;;;3.42;75.16;101773.06;10326350;28;20180;-69
2023/01/23 06:11:47;;;;;;;5.95;5.35;;;;;;;3.31;75.35;101756.72;10315837;28;20196;-69
2023/01/23 06:16:48;;;;;;;5.90;5.30;;;;;;;3.33;75.31;101776.84;10314601;28;20058;-71
2023/01/23 06:21:50;;;;;;;5.85;5.22;;;;;;;3.36;75.12;101791.66;10321921;28;20060;-70
2023/01/23 06:26:51;;;;;;;7.25;6.45;;;;;;;3.34;75.89;101798.75;10317659;28;20120;-68
2023/01/23 06:31:52;;;;;;;5.63;5.03;;;;;;;3.29;75.28;101782.22;10318399;28;20068;-70
2023/01/23 06:36:54;;;;;;;6.75;5.65;;;;;;;3.27;75.24;101787.53;10318215;28;20128;-68
2023/01/23 06:41:56;;;;;;;6.78;5.63;;;;;;;3.46;75.32;101808.94;10338296;28;20088;-65
2023/01/23 06:46:57;;;;;;;5.97;5.38;;;;;;;3.50;74.99;101805.34;10312698;28;20467;-66
2023/01/23 06:51:59;;;;;;;6.28;5.68;;;;;;;3.41;74.95;101795.06;10318573;28;20459;-66
2023/01/23 06:57:00;;;;;;;5.68;4.93;;;;;;;3.47;74.80;101810.69;10326451;28;20080;-66
2023/01/23 07:02:01;;;;;;;7.15;6.45;;;;;;;3.47;74.42;101815.97;10333997;28;20256;-65
2023/01/23 07:07:03;;;;;;;6.05;5.50;;;;;;;3.63;75.76;101818.19;10305715;28;20129;-66
2023/01/23 07:12:05;;;;;;;5.40;4.70;;;;;;;3.54;73.48;101799.09;10307718;28;20061;-66
2023/01/23 07:17:06;;;;;;;5.28;4.78;;;;;;;3.40;73.59;101792.47;10326148;28;20054;-67
2023/01/23 07:22:08;;;;;;;8.65;7.93;;;;;;;3.42;74.19;101809.06;10309747;28;20134;-67
2023/01/23 07:27:09;;;;;;;10.70;9.80;;;;;;;3.30;74.72;101824.28;10331014;28;20057;-66
2023/01/23 07:32:11;;;;;;;5.82;5.22;;;;;;;3.21;75.23;101836.78;10310187;28;20060;-66
2023/01/23 07:37:12;;;;;;;6.13;5.53;;;;;;;3.18;75.77;101841.25;10325536;28;20058;-68
2023/01/23 07:42:14;;;;;;;5.82;5.32;;;;;;;3.17;75.91;101847.41;10312117;28;20061;-69
2023/01/23 07:47:15;;;;;;;10.02;9.02;;;;;;;3.11;75.94;101839.66;10313180;28;20050;-68
2023/01/23 07:52:17;;;;;;;7.28;5.97;;;;;;;3.14;75.88;101865.91;10327195;28;20085;-69
2023/01/23 07:57:18;;;;;;;6.72;6.03;;;;;;;2.98;75.52;101854.00;10357064;28;20107;-71
2023/01/23 08:02:20;;;;;;;14.32;7.03;;;;;;;3.27;75.67;101876.13;10371816;28;20528;-68
2023/01/23 08:07:22;;;;;;;7.40;5.47;;;;;;;3.39;75.39;101890.75;10332688;28;20104;-71
2023/01/23 08:12:24;;;;;;;6.43;5.53;;;;;;;3.35;74.32;101887.34;10336835;28;20053;-70
2023/01/23 08:17:25;;;;;;;5.78;5.13;;;;;;;3.52;73.36;101877.25;10355708;28;20154;-69
2023/01/23 08:22:27;;;;;;;5.22;4.72;;;;;;;3.70;72.80;101910.16;10346016;28;20125;-69
2023/01/23 08:27:28;;;;;;;5.20;4.70;;;;;;;3.70;72.73;101893.50;10366675;28;20073;-68
2023/01/23 08:32:29;;;;;;;5.63;5.05;;;;;;;3.62;72.05;101893.69;10357169;28;20111;-69
2023/01/23 08:37:33;;;;;;;6.30;5.60;;;;;;;3.75;71.93;101906.53;10323369;28;20742;-71
2023/01/23 08:42:35;;;;;;;5.78;5.18;;;;;;;3.81;71.75;101922.19;10321055;28;20230;-69
2023/01/23 08:47:37;;;;;;;5.80;5.03;;;;;;;3.76;71.24;101913.56;10321036;28;20137;-69
2023/01/23 08:52:38;;;;;;;6.40;5.00;;;;;;;3.88;71.21;101921.13;10322805;28;20575;-69
2023/01/23 08:57:40;;;;;;;6.18;5.18;;;;;;;3.93;70.58;101918.38;10321455;28;20107;-68
2023/01/23 09:02:41;;;;;;;6.78;5.97;;;;;;;3.97;70.78;101925.31;10322804;28;20670;-67
2023/01/23 09:07:42;;;;;;;6.63;6.03;;;;;;;3.99;70.77;101907.69;10334186;28;20050;-68
2023/01/23 09:12:44;;;;;;;6.15;5.55;;;;;;;4.15;70.76;101913.41;10334342;28;20049;-68
2023/01/23 09:17:45;;;;;;;7.07;6.35;;;;;;;4.21;69.89;101927.28;10314172;28;20193;-68
2023/01/23 09:22:47;;;;;;;7.07;6.38;;;;;;;4.25;69.86;101936.84;10316253;28;20464;-65
2023/01/23 09:27:49;;;;;;;5.65;5.10;;;;;;;4.31;69.22;101940.19;10318295;28;20058;-67
2023/01/23 09:32:52;;;;;;;7.50;6.68;;;;;;;4.29;68.69;101926.22;10321146;28;20756;-68
2023/01/23 09:37:59;;;;;;;5.78;5.18;;;;;;;4.32;68.30;101916.44;10318143;28;20061;-71
2023/01/23 09:43:09;;;;;;;6.65;5.65;;;;;;;4.50;67.53;101930.00;10318653;28;20058;-66
2023/01/23 09:48:20;;;;;;;7.82;6.35;;;;;;;4.57;66.52;101936.84;10323922;28;20583;-68
2023/01/23 09:53:25;;;;;;;7.07;5.82;;;;;;;4.51;66.79;101937.88;10317528;28;20053;-68
2023/01/23 09:58:33;;;;;;;6.32;5.72;;;;;;;4.51;66.50;101932.59;10312497;28;20128;-69
2023/01/23 10:03:36;;;;;;;7.00;5.47;;;;;;;4.49;66.24;101913.34;10319431;28;20741;-68
2023/01/23 10:08:52;;;;;;;;;;;;;;;4.69;65.44;101919.81;10322562;28;20077;-70
2023/01/23 10:14:13;;;;;;;5.75;5.15;;;;;;;4.81;64.94;101919.44;10330469;28;20281;-70
2023/01/23 10:19:54;;;;;;;6.55;5.93;;;;;;;4.80;65.33;101925.63;10329565;28;20045;-68
2023/01/23 10:24:57;;;;;;;7.18;5.88;;;;;;;4.80;64.56;101922.13;10315736;28;20052;-69
2023/01/23 10:30:16;;;;;;;6.20;5.30;;;;;;;4.84;64.93;101929.91;10317642;28;20602;-69
2023/01/23 10:36:00;;;;;;;6.20;5.57;;;;;;;4.93;64.94;101929.63;10317738;28;20084;-65
2023/01/23 10:41:13;;;;;;;8.48;5.95;;;;;;;4.95;64.58;101927.81;10236320;28;20058;-68
2023/01/23 10:46:18;;;;;;;6.57;5.80;;;;;;;5.07;64.36;101928.34;10304199;28;20073;-69
2023/01/23 10:51:25;;;;;;;6.53;5.82;;;;;;;4.78;64.97;101922.16;10318832;28;20534;-69
2023/01/23 10:56:27;;;;;;;5.85;5.25;;;;;;;4.92;65.02;101917.34;10320272;28;20057;-65
2023/01/23 11:01:34;;;;;;;6.35;5.40;;;;;;;5.11;64.58;101935.25;10320385;28;20054;-66
2023/01/23 11:06:37;;;;;;;6.63;5.97;;;;;;;5.39;63.49;101913.25;10322044;28;20054;-66
2023/01/23 11:11:39;;;;;;;7.25;5.00;;;;;;;5.61;62.05;101909.00;10319924;28;20057;-65
2023/01/23 11:16:40;;;;;;;5.25;4.75;;;;;;;5.73;61.31;101909.50;10314226;28;20057;-65
2023/01/23 11:21:54;;;;;;;5.32;4.82;;;;;;;7.17;57.22;101897.22;10329059;28;20078;-65
2023/01/23 11:27:19;;;;;;;4.93;4.43;;;;;;;9.65;50.08;101893.19;10314614;28;20124;-66
2023/01/23 11:32:22;;;;;;;4.53;3.90;;;;;;;9.09;50.34;101890.59;10326134;28;20072;-66
2023/01/23 11:37:33;;;;;;;4.93;4.40;;;;;;;15.65;36.85;101873.38;10320680;28;20295;-66
2023/01/23 11:42:38;;;;;;;4.60;4.20;;;;;;;19.33;29.80;101865.94;10319929;28;20050;-66
2023/01/23 11:47:59;;;;;;;4.47;3.65;;;;;;;21.36;26.21;101850.06;10320560;28;20050;-64
2023/01/23 11:53:07;;;;;;;3.92;3.63;;;;;;;21.85;25.08;101855.06;10313883;28;20141;-65
2023/01/23 11:58:18;;;;;;;4.50;4.10;;;;;;;19.34;27.98;101851.44;10310738;28;20192;-65
2023/01/23 12:03:33;;;;;;;6.13;5.53;;;;;;;18.89;28.75;101852.81;10309565;28;20057;-65
2023/01/23 12:08:40;;;;;;;4.32;3.92;;;;;;;15.98;32.53;101853.81;10314595;28;20177;-64
2023/01/23 12:14:08;;;;;;;4.55;4.15;;;;;;;17.71;30.62;101844.31;10336613;28;21905;-66
2023/01/23 12:19:28;;;;;;;4.50;4.07;;;;;;;19.70;28.30;101840.88;10353001;28;20054;-65
2023/01/23 12:24:42;;;;;;;4.28;3.92;;;;;;;20.36;26.08;101825.63;10321835;28;20062;-65
2023/01/23 12:29:46;;;;;;;6.68;4.90;;;;;;;16.00;32.47;101825.03;10316799;28;20050;-64
2023/01/23 12:35:13;;;;;;;4.22;3.75;;;;;;;19.75;27.65;101808.03;10322921;28;20065;-66
2023/01/23 12:40:23;;;;;;;4.38;3.97;;;;;;;22.86;23.80;101813.63;10324535;28;20050;-66
2023/01/23 12:45:27;;;;;;;4.28;3.97;;;;;;;23.84;22.61;101811.97;10321797;28;20057;-66
2023/01/23 12:50:41;;;;;;;5.18;4.78;;;;;;;25.03;21.37;101799.19;10322502;28;20058;-66
2023/01/23 12:56:22;;;;;;;4.97;4.57;;;;;;;25.84;21.08;101800.56;10338199;28;20596;-66
2023/01/23 13:01:59;;;;;;;4.50;4.10;;;;;;;24.48;21.83;101790.16;10315791;28;20053;-65
2023/01/23 13:07:23;;;;;;;5.25;4.85;;;;;;;23.67;22.47;101783.94;10320182;28;20116;-65
2023/01/23 13:12:27;;;;;;;4.75;4.35;;;;;;;24.96;21.20;101775.59;10314890;28;20148;-65
2023/01/23 13:17:37;;;;;;;5.80;4.40;;;;;;;25.69;20.30;101771.38;10319945;28;20076;-65
2023/01/23 13:22:39;;;;;;;4.13;3.80;;;;;;;24.96;20.90;101764.69;10324197;28;20103;-66
2023/01/23 13:27:51;;;;;;;4.75;4.35;;;;;;;25.54;20.20;101773.25;10322001;28;20050;-65
2023/01/23 13:32:56;;;;;;;4.32;3.92;;;;;;;25.93;20.46;101761.22;10313283;28;20062;-65
2023/01/23 13:37:58;;;;;;;5.00;4.50;;;;;;;25.80;20.00;101761.03;10336744;28;20349;-67
2023/01/23 13:43:38;;;;;;;3.45;3.20;;;;;;;26.10;19.50;101757.28;10319000;28;20065;-66
2023/01/23 14:00:05;;;;;;;3.70;3.40;;;;;;;22.72;22.44;101749.16;10158625;28;20055;-66
2023/01/23 14:05:30;;;;;;;4.03;3.72;;;;;;;18.37;27.75;101744.22;10082402;29;20435;-64
2023/01/23 14:10:48;;;;;;;4.50;4.10;;;;;;;15.36;32.92;101766.44;9992905;29;20450;-65
2023/01/23 14:16:12;;;;;;;4.50;4.10;;;;;;;13.62;36.95;101750.47;9934289;29;20062;-66
2023/01/23 14:21:28;;;;;;;;;;;;;;;12.76;38.96;101758.91;9819314;29;20246;-64
2023/01/23 14:26:47;;;;;;;5.45;4.97;;;;;;;11.94;40.17;101764.97;9903335;29;20564;-65
2023/01/23 14:31:52;;;;;;;5.07;4.57;;;;;;;11.14;42.26;101769.78;9996385;29;20061;-66
2023/01/23 14:37:10;;;;;;;4.20;3.80;;;;;;;10.39;43.85;101758.97;10064232;29;20060;-65
2023/01/23 14:42:24;;;;;;;4.93;4.43;;;;;;;9.76;45.54;101768.53;10159214;28;20194;-65
2023/01/23 14:47:30;;;;;;;6.85;5.85;;;;;;;9.19;48.26;101769.66;10315531;28;20057;-64
2023/01/23 14:52:35;;;;;;;7.82;7.03;;;;;;;8.66;50.21;101765.19;10314772;28;20136;-65
2023/01/23 14:57:37;;;;;;;5.95;5.35;;;;;;;8.51;51.02;101781.84;10313345;28;20053;-65
2023/01/23 15:02:39;;;;;;;6.93;6.10;;;;;;;8.91;49.87;101780.78;10313868;28;20534;-64
2023/01/23 15:08:19;;;;;;;6.75;6.10;;;;;;;11.31;44.95;101774.97;10309822;28;20053;-65
2023/01/23 15:13:29;;;;;;;6.35;5.75;;;;;;;13.25;40.22;101780.56;10312060;28;20049;-68
2023/01/23 15:18:33;;;;;;;6.45;5.80;;;;;;;11.58;42.78;101790.25;10310945;28;20048;-65
2023/01/23 15:23:37;;;;;;;6.45;5.85;;;;;;;9.56;47.66;101793.47;10321318;28;20057;-65
2023/01/23 15:28:47;;;;;;;6.43;5.82;;;;;;;8.16;51.19;101771.09;10312937;28;20457;-66
2023/01/23 15:33:48;;;;;;;6.32;5.72;;;;;;;7.59;53.12;101779.78;10320188;28;20136;-65
2023/01/23 15:38:50;;;;;;;6.90;5.75;;;;;;;7.02;54.96;101783.03;10319045;28;20054;-68
2023/01/23 15:43:52;;;;;;;6.13;5.53;;;;;;;6.73;55.66;101779.78;10320157;28;20077;-66
2023/01/23 15:48:54;;;;;;;6.90;6.20;;;;;;;6.60;56.57;101791.78;10320010;28;20045;-65
2023/01/23 15:53:55;;;;;;;6.50;5.88;;;;;;;6.32;57.07;101782.28;10320889;28;20062;-66
2023/01/23 15:58:59;;;;;;;8.35;6.40;;;;;;;6.20;58.05;101798.63;10323384;28;20122;-68
2023/01/23 16:04:00;;;;;;;7.18;6.35;;;;;;;5.96;58.42;101795.94;10353424;28;20058;-67
2023/01/23 16:09:03;;;;;;;6.72;6.00;;;;;;;5.57;59.94;101785.88;10339168;28;20053;-66
2023/01/23 16:14:13;;;;;;;7.65;6.07;;;;;;;5.57;59.75;101803.47;10315946;28;20579;-65
2023/01/23 16:19:15;;;;;;;7.90;6.55;;;;;;;5.45;60.10;101799.47;10317653;28;20221;-66
2023/01/23 16:24:19;;;;;;;7.03;6.32;;;;;;;5.44;60.48;101816.28;10314305;28;20396;-65
2023/01/23 16:29:29;;;;;;;;;;;;;;;5.35;61.29;101809.50;10320285;28;20115;-65
2023/01/23 16:34:30;;;;;;;7.78;6.55;;;;;;;5.21;61.24;101804.69;10322159;28;20376;-66
2023/01/23 16:39:32;;;;;;;7.43;6.55;;;;;;;5.18;61.37;101812.72;10342139;28;20053;-65
2023/01/23 16:44:34;;;;;;;7.70;6.90;;;;;;;5.19;61.66;101825.00;10325258;28;20125;-65
2023/01/23 16:49:36;;;;;;;9.10;7.45;;;;;;;5.14;61.99;101832.22;10323292;28;20115;-65
2023/01/23 16:54:53;;;;;;;8.30;7.15;;;;;;;5.02;62.57;101827.34;10317368;28;20053;-66
2023/01/23 16:59:55;;;;;;;9.13;8.18;;;;;;;4.76;63.86;101821.13;10320653;28;20056;-67
2023/01/23 17:04:56;;;;;;;9.23;7.85;;;;;;;4.49;64.69;101812.25;10316620;28;20042;-67
2023/01/23 17:09:58;;;;;;;12.13;9.68;;;;;;;4.47;64.05;101804.38;10322628;28;20109;-68
2023/01/23 17:15:01;;;;;;;8.25;7.45;;;;;;;4.64;64.96;101850.47;10324498;28;20060;-67
2023/01/23 17:20:04;;;;;;;8.95;8.02;;;;;;;4.65;64.89;101836.38;10320168;28;20079;-67
2023/01/23 17:25:18;;;;;;;9.13;8.02;;;;;;;4.54;66.09;101848.13;10323952;28;20123;-66
2023/01/23 17:30:24;;;;;;;9.43;8.52;;;;;;;4.52;65.80;101851.72;10327276;28;20133;-67
2023/01/23 17:35:35;;;;;;;11.00;8.55;;;;;;;4.49;66.20;101850.06;10329462;28;20784;-66
2023/01/23 17:40:36;;;;;;;10.55;9.45;;;;;;;4.41;66.16;101841.47;10338532;28;20038;-67
2023/01/23 17:45:40;;;;;;;12.75;9.75;;;;;;;4.38;66.70;101845.09;10317928;28;20088;-66
2023/01/23 17:50:45;;;;;;;11.90;9.27;;;;;;;4.43;66.45;101861.63;10314582;28;20733;-67
2023/01/23 17:55:50;;;;;;;;;;;;;;;4.43;66.51;101864.28;10313577;28;20769;-66
2023/01/23 18:00:52;;;;;;;24.67;14.23;;;;;;;4.38;67.85;101846.84;10315502;28;19925;-66
2023/01/23 18:05:54;;;;;;;11.38;9.07;;;;;;;4.35;66.96;101860.13;10320189;28;20053;-65
2023/01/23 18:10:57;;;;;;;11.20;9.02;;;;;;;4.32;66.88;101873.38;10316630;28;20054;-67
2023/01/23 18:16:10;;;;;;;10.23;9.05;;;;;;;4.29;67.14;101869.06;10312453;28;20148;-67
2023/01/23 18:21:14;;;;;;;10.07;8.65;;;;;;;4.19;67.11;101873.75;10326663;28;20152;-67
2023/01/23 18:26:44;;;;;;;10.60;8.33;;;;;;;4.18;67.46;101879.06;10316537;28;20418;-67
2023/01/23 18:32:13;;;;;;;11.52;9.45;;;;;;;4.05;67.88;101879.41;10312083;28;20057;-65
2023/01/23 18:37:36;;;;;;;10.57;9.27;;;;;;;4.06;68.20;101888.16;10313980;28;20297;-66
2023/01/23 18:43:16;;;;;;;11.93;9.90;;;;;;;3.97;68.23;101883.16;10320151;28;20066;-66
2023/01/23 18:48:18;;;;;;;12.07;9.82;;;;;;;4.03;68.31;101897.00;10316275;28;20046;-67
2023/01/23 18:53:44;;;;;;;10.88;9.73;;;;;;;4.03;68.28;101890.88;10315931;28;20046;-66
2023/01/23 18:58:51;;;;;;;11.07;9.13;;;;;;;3.82;68.61;101885.28;10319508;28;20073;-64
2023/01/23 19:04:14;;;;;;;10.05;9.00;;;;;;;3.96;68.49;101892.81;10316418;28;20072;-67
2023/01/23 19:09:19;;;;;;;8.98;8.10;;;;;;;3.89;68.55;101881.56;10315999;28;20052;-69
2023/01/23 19:15:09;;;;;;;11.02;8.57;;;;;;;3.86;68.92;101862.38;10320967;28;20598;-66
2023/01/23 19:20:27;;;;;;;9.48;8.20;;;;;;;3.59;69.36;101848.13;10281691;28;20038;-66
2023/01/23 19:25:29;;;;;;;10.90;9.48;;;;;;;3.51;70.26;101846.56;10318173;28;20054;-66
2023/01/23 19:30:31;;;;;;;10.20;9.13;;;;;;;3.55;70.55;101873.69;10320840;28;20050;-66
2023/01/23 19:35:32;;;;;;;10.68;8.95;;;;;;;3.71;70.09;101884.69;10325220;28;20061;-70
2023/01/23 19:40:34;;;;;;;12.35;10.35;;;;;;;3.58;70.28;101878.00;10326368;28;20054;-66
2023/01/23 19:45:35;;;;;;;10.45;9.35;;;;;;;3.70;69.89;101890.88;10328126;28;20471;-65
2023/01/23 19:50:37;;;;;;;11.02;9.13;;;;;;;3.66;70.02;101889.19;10335296;28;20049;-66
2023/01/23 19:55:39;;;;;;;10.30;8.85;;;;;;;3.65;70.18;101896.25;10333197;28;20486;-67
2023/01/23 20:00:40;;;;;;;10.13;8.50;;;;;;;3.62;69.54;101887.53;10314203;28;20390;-67
2023/01/23 20:05:42;;;;;;;13.13;11.02;;;;;;;3.66;70.14;101895.34;10308309;28;20742;-67
2023/01/23 20:10:43;;;;;;;10.27;8.68;;;;;;;3.60;70.29;101894.63;10311238;28;20106;-67
2023/01/23 20:15:44;;;;;;;10.80;8.68;;;;;;;3.59;70.61;101904.31;10320647;28;20049;-63
2023/01/23 20:20:46;;;;;;;10.45;9.13;;;;;;;3.54;70.81;101914.97;10316970;28;20129;-67
2023/01/23 20:25:56;;;;;;;10.75;9.05;;;;;;;3.30;71.34;101907.63;10314154;28;20269;-65
2023/01/23 20:31:12;;;;;;;12.40;10.55;;;;;;;3.32;71.89;101921.66;10318942;28;20597;-67
2023/01/23 20:36:14;;;;;;;12.02;9.60;;;;;;;3.28;72.48;101915.56;10311068;28;20449;-66
2023/01/23 20:41:18;;;;;;;11.07;9.88;;;;;;;3.38;72.62;101924.13;10314840;28;20133;-65
2023/01/23 20:46:20;;;;;;;12.40;10.15;;;;;;;3.41;72.33;101921.41;10314367;28;20050;-68
2023/01/23 20:51:21;;;;;;;12.80;10.27;;;;;;;3.48;71.88;101927.38;10317254;28;20124;-66
2023/01/23 20:56:26;;;;;;;10.77;9.55;;;;;;;3.19;72.50;101906.13;10337241;28;20501;-65
2023/01/23 21:01:29;;;;;;;;;;;;;;;3.37;72.71;101930.28;10334815;28;20141;-66
2023/01/23 21:06:30;;;;;;;12.45;9.77;;;;;;;3.41;72.63;101931.94;10318953;28;20477;-67
2023/01/23 21:11:32;;;;;;;13.18;9.90;;;;;;;3.44;72.95;101925.72;10323647;28;20049;-66
2023/01/23 21:16:34;;;;;;;13.82;10.55;;;;;;;3.58;72.18;101918.38;10320969;28;20513;-67
2023/01/23 21:21:36;;;;;;;12.63;10.35;;;;;;;3.46;72.41;101914.25;10329714;28;20425;-66
2023/01/23 21:26:38;;;;;;;12.88;10.30;;;;;;;3.59;72.27;101920.09;10316627;28;20602;-66
2023/01/23 21:31:40;;;;;;;10.57;9.23;;;;;;;3.61;71.82;101906.91;10317452;28;20054;-68
2023/01/23 21:36:42;;;;;;;11.82;9.15;;;;;;;3.54;71.98;101911.44;10322892;28;20065;-66
2023/01/23 21:41:44;;;;;;;12.30;10.30;;;;;;;3.58;72.19;101914.88;10318380;28;20058;-66
2023/01/23 21:46:45;;;;;;;12.70;10.00;;;;;;;3.60;72.13;101932.34;10316503;28;20521;-66
2023/01/23 21:51:47;;;;;;;12.60;9.50;;;;;;;3.52;72.42;101924.66;10321433;28;20061;-66
2023/01/23 21:56:48;;;;;;;14.10;10.55;;;;;;;3.61;72.47;101933.25;10320654;28;20373;-66
2023/01/23 22:01:50;;;;;;;11.15;9.85;;;;;;;3.36;72.50;101896.97;10317442;28;20116;-66
2023/01/23 22:06:53;;;;;;;12.02;9.75;;;;;;;3.61;72.27;101930.59;10318166;28;20646;-67
2023/01/23 22:11:56;;;;;;;12.33;9.90;;;;;;;3.65;72.11;101940.16;10315217;28;20046;-66
2023/01/23 22:16:57;;;;;;;13.40;11.45;;;;;;;3.61;72.18;101943.78;10315336;28;20058;-66
2023/01/23 22:21:59;;;;;;;12.55;9.55;;;;;;;3.54;72.07;101943.03;10315192;28;20140;-66
2023/01/23 22:27:02;;;;;;;10.57;9.20;;;;;;;3.42;72.65;101944.19;10316804;28;20056;-64
2023/01/23 22:32:04;;;;;;;11.90;9.95;;;;;;;3.40;72.35;101942.53;10312294;28;20096;-65
2023/01/23 22:37:05;;;;;;;13.77;10.85;;;;;;;3.33;72.50;101944.41;10316489;28;20128;-65
2023/01/23 22:42:07;;;;;;;12.20;10.10;;;;;;;3.39;72.56;101951.31;10310982;28;20496;-67
2023/01/23 22:47:08;;;;;;;11.73;10.35;;;;;;;3.42;72.36;101935.44;10329329;28;20093;-66
2023/01/23 22:52:10;;;;;;;11.65;10.15;;;;;;;3.49;72.05;101940.50;10313020;28;20109;-66
2023/01/23 22:57:12;;;;;;;12.75;10.68;;;;;;;3.53;72.05;101947.44;10327542;28;20418;-68
2023/01/23 23:02:13;;;;;;;13.98;10.73;;;;;;;3.41;72.58;101933.69;10311533;28;20054;-68
2023/01/23 23:07:17;;;;;;;13.50;10.63;;;;;;;3.40;72.64;101934.63;10328602;28;20060;-66
2023/01/23 23:12:19;;;;;;;12.30;11.00;;;;;;;3.31;72.64;101925.16;10313919;28;20053;-66
2023/01/23 23:17:20;;;;;;;13.68;10.80;;;;;;;3.28;72.51;101936.63;10314187;28;20054;-67
2023/01/23 23:22:22;;;;;;;14.18;11.27;;;;;;;3.26;72.58;101941.06;10313558;28;20676;-66
2023/01/23 23:27:23;;;;;;;14.50;11.18;;;;;;;3.23;72.70;101938.50;10314730;28;20342;-65
2023/01/23 23:32:25;;;;;;;13.52;10.70;;;;;;;3.22;72.91;101955.19;10332382;28;20128;-66
2023/01/23 23:37:26;;;;;;;13.15;10.48;;;;;;;3.16;73.35;101957.97;10309888;28;20052;-67
2023/01/23 23:42:27;;;;;;;13.82;10.98;;;;;;;3.10;73.42;101953.69;10311249;28;20049;-67
2023/01/23 23:47:29;;;;;;;12.40;10.30;;;;;;;3.10;73.71;101958.09;10328509;28;20129;-67
2023/01/23 23:52:32;;;;;;;14.23;11.82;;;;;;;3.08;73.89;101950.25;10312473;28;20050;-65
2023/01/23 23:57:36;;;;;;;14.40;11.27;;;;;;;3.03;73.58;101962.63;10313311;28;20053;-66
